sensor_id;sensor_type;location;lat;lon;timestamp;temperature;humidity
20288;DHT22;10303;51.960;8.372;2023-11-19T00:00:53;12.70;99.90
20288;DHT22;10303;51.960;8.372;2023-11-19T00:03:19;12.70;99.90
20288;DHT22;10303;51.960;8.372;2023-11-19T00:05:45;12.70;99.90
20288;DHT22;10303;51.960;8.372;2023-11-19T00:08:11;12.70;99.90
20288;DHT22;10303;51.960;8.372;2023-11-19T00:10:38;12.80;99.90
20288;DHT22;10303;51.960;8.372;2023-11-19T00:13:04;12.80;99.90
20288;DHT22;10303;51.960;8.372;2023-11-19T00:15:30;12.90;99.90
20288;DHT22;10303;51.960;8.372;2023-11-19T00:17:56;12.90;99.90
20288;DHT22;10303;51.960;8.372;2023-11-19T00:20:22;12.90;99.90
20288;DHT22;10303;51.960;8.372;2023-11-19T00:22:49;13.00;99.90
20288;DHT22;10303;51.960;8.372;2023-11-19T00:25:18;13.00;99.90
20288;DHT22;10303;51.960;8.372;2023-11-19T00:27:45;13.00;99.90
20288;DHT22;10303;51.960;8.372;2023-11-19T00:30:11;13.10;99.90
20288;DHT22;10303;51.960;8.372;2023-11-19T00:32:39;13.10;99.90
20288;DHT22;10303;51.960;8.372;2023-11-19T00:35:06;13.10;99.90
20288;DHT22;10303;51.960;8.372;2023-11-19T00:37:33;13.10;99.90
20288;DHT22;10303;51.960;8.372;2023-11-19T00:39:59;13.20;99.90
20288;DHT22;10303;51.960;8.372;2023-11-19T00:42:25;13.20;99.90
20288;DHT22;10303;51.960;8.372;2023-11-19T00:44:52;13.20;99.90
20288;DHT22;10303;51.960;8.372;2023-11-19T00:47:18;13.30;99.90
20288;DHT22;10303;51.960;8.372;2023-11-19T00:49:48;13.30;99.90
20288;DHT22;10303;51.960;8.372;2023-11-19T00:52:15;13.30;99.90
20288;DHT22;10303;51.960;8.372;2023-11-19T00:54:42;13.30;99.90
20288;DHT22;10303;51.960;8.372;2023-11-19T00:57:08;13.50;99.90
20288;DHT22;10303;51.960;8.372;2023-11-19T00:59:34;13.40;99.90
20288;DHT22;10303;51.960;8.372;2023-11-19T01:02:00;13.40;99.90
20288;DHT22;10303;51.960;8.372;2023-11-19T01:04:36;13.50;99.90
20288;DHT22;10303;51.960;8.372;2023-11-19T01:07:03;13.40;99.90
20288;DHT22;10303;51.960;8.372;2023-11-19T01:09:32;13.50;99.90
20288;DHT22;10303;51.960;8.372;2023-11-19T01:12:01;13.50;99.90
20288;DHT22;10303;51.960;8.372;2023-11-19T01:14:27;13.50;99.90
20288;DHT22;10303;51.960;8.372;2023-11-19T01:16:54;13.50;99.90
20288;DHT22;10303;51.960;8.372;2023-11-19T01:19:21;13.60;99.90
20288;DHT22;10303;51.960;8.372;2023-11-19T01:21:48;13.50;99.90
20288;DHT22;10303;51.960;8.372;2023-11-19T01:24:15;13.60;99.90
20288;DHT22;10303;51.960;8.372;2023-11-19T01:26:41;13.60;99.90
20288;DHT22;10303;51.960;8.372;2023-11-19T01:29:11;13.60;99.90
20288;DHT22;10303;51.960;8.372;2023-11-19T01:31:45;13.70;99.90
20288;DHT22;10303;51.960;8.372;2023-11-19T01:34:16;13.70;99.90
20288;DHT22;10303;51.960;8.372;2023-11-19T01:36:42;13.80;99.90
20288;DHT22;10303;51.960;8.372;2023-11-19T01:39:08;13.80;99.90
20288;DHT22;10303;51.960;8.372;2023-11-19T01:41:35;13.80;99.90
20288;DHT22;10303;51.960;8.372;2023-11-19T01:44:01;13.80;99.90
20288;DHT22;10303;51.960;8.372;2023-11-19T01:46:28;13.90;99.90
20288;DHT22;10303;51.960;8.372;2023-11-19T01:48:55;13.90;99.90
20288;DHT22;10303;51.960;8.372;2023-11-19T01:51:22;13.90;99.90
20288;DHT22;10303;51.960;8.372;2023-11-19T01:53:49;13.90;99.90
20288;DHT22;10303;51.960;8.372;2023-11-19T01:56:16;14.00;99.90
20288;DHT22;10303;51.960;8.372;2023-11-19T01:58:44;14.00;99.90
20288;DHT22;10303;51.960;8.372;2023-11-19T02:01:11;14.00;99.90
20288;DHT22;10303;51.960;8.372;2023-11-19T02:03:38;14.00;99.90
20288;DHT22;10303;51.960;8.372;2023-11-19T02:06:05;14.10;99.90
20288;DHT22;10303;51.960;8.372;2023-11-19T02:08:32;14.10;99.90
20288;DHT22;10303;51.960;8.372;2023-11-19T02:10:58;14.20;99.90
20288;DHT22;10303;51.960;8.372;2023-11-19T02:13:26;14.10;99.90
20288;DHT22;10303;51.960;8.372;2023-11-19T02:15:54;14.10;99.90
20288;DHT22;10303;51.960;8.372;2023-11-19T02:18:25;14.20;99.90
20288;DHT22;10303;51.960;8.372;2023-11-19T02:20:57;14.30;99.90
20288;DHT22;10303;51.960;8.372;2023-11-19T02:23:26;14.30;99.90
20288;DHT22;10303;51.960;8.372;2023-11-19T02:28:24;14.30;99.90
20288;DHT22;10303;51.960;8.372;2023-11-19T02:30:50;14.40;99.90
20288;DHT22;10303;51.960;8.372;2023-11-19T02:33:16;14.40;99.90
20288;DHT22;10303;51.960;8.372;2023-11-19T02:35:42;14.40;99.90
20288;DHT22;10303;51.960;8.372;2023-11-19T02:38:08;14.40;99.90
20288;DHT22;10303;51.960;8.372;2023-11-19T02:40:34;14.40;99.90
20288;DHT22;10303;51.960;8.372;2023-11-19T02:43:00;14.40;99.90
20288;DHT22;10303;51.960;8.372;2023-11-19T02:45:27;14.40;99.90
20288;DHT22;10303;51.960;8.372;2023-11-19T02:47:54;14.50;99.90
20288;DHT22;10303;51.960;8.372;2023-11-19T02:50:21;14.50;99.90
20288;DHT22;10303;51.960;8.372;2023-11-19T02:52:52;14.50;99.90
20288;DHT22;10303;51.960;8.372;2023-11-19T02:55:19;14.60;99.90
20288;DHT22;10303;51.960;8.372;2023-11-19T02:57:45;14.60;99.90
20288;DHT22;10303;51.960;8.372;2023-11-19T03:00:17;14.60;99.90
20288;DHT22;10303;51.960;8.372;2023-11-19T03:02:49;14.70;99.90
20288;DHT22;10303;51.960;8.372;2023-11-19T03:05:25;14.80;99.90
20288;DHT22;10303;51.960;8.372;2023-11-19T03:07:55;14.80;99.90
20288;DHT22;10303;51.960;8.372;2023-11-19T03:10:21;14.80;99.90
20288;DHT22;10303;51.960;8.372;2023-11-19T03:12:46;14.90;99.90
20288;DHT22;10303;51.960;8.372;2023-11-19T03:15:12;14.80;99.90
20288;DHT22;10303;51.960;8.372;2023-11-19T03:17:39;14.90;99.90
20288;DHT22;10303;51.960;8.372;2023-11-19T03:20:08;14.90;99.90
20288;DHT22;10303;51.960;8.372;2023-11-19T03:22:39;14.90;99.90
20288;DHT22;10303;51.960;8.372;2023-11-19T03:25:08;14.90;99.90
20288;DHT22;10303;51.960;8.372;2023-11-19T03:27:35;15.00;99.90
20288;DHT22;10303;51.960;8.372;2023-11-19T03:30:11;15.10;99.90
20288;DHT22;10303;51.960;8.372;2023-11-19T03:32:38;15.10;99.90
20288;DHT22;10303;51.960;8.372;2023-11-19T03:35:05;15.10;99.90
20288;DHT22;10303;51.960;8.372;2023-11-19T03:37:33;15.20;99.90
20288;DHT22;10303;51.960;8.372;2023-11-19T03:40:00;15.20;99.90
20288;DHT22;10303;51.960;8.372;2023-11-19T03:42:27;15.30;99.90
20288;DHT22;10303;51.960;8.372;2023-11-19T03:44:54;15.30;99.90
20288;DHT22;10303;51.960;8.372;2023-11-19T03:47:20;15.30;99.90
20288;DHT22;10303;51.960;8.372;2023-11-19T03:49:51;15.30;99.90
20288;DHT22;10303;51.960;8.372;2023-11-19T03:52:18;15.40;99.90
20288;DHT22;10303;51.960;8.372;2023-11-19T03:54:44;15.30;99.90
20288;DHT22;10303;51.960;8.372;2023-11-19T03:57:14;15.40;99.90
20288;DHT22;10303;51.960;8.372;2023-11-19T03:59:41;15.40;99.90
20288;DHT22;10303;51.960;8.372;2023-11-19T04:02:07;15.40;99.90
20288;DHT22;10303;51.960;8.372;2023-11-19T04:04:33;15.40;99.90
20288;DHT22;10303;51.960;8.372;2023-11-19T04:07:00;15.50;99.90
20288;DHT22;10303;51.960;8.372;2023-11-19T04:09:29;15.50;99.90
20288;DHT22;10303;51.960;8.372;2023-11-19T04:11:59;15.50;99.90
20288;DHT22;10303;51.960;8.372;2023-11-19T04:14:26;15.50;99.90
20288;DHT22;10303;51.960;8.372;2023-11-19T04:16:53;15.50;99.90
20288;DHT22;10303;51.960;8.372;2023-11-19T04:19:19;15.50;99.90
20288;DHT22;10303;51.960;8.372;2023-11-19T04:21:46;15.60;99.90
20288;DHT22;10303;51.960;8.372;2023-11-19T04:24:12;15.60;99.90
20288;DHT22;10303;51.960;8.372;2023-11-19T04:26:43;15.60;99.90
20288;DHT22;10303;51.960;8.372;2023-11-19T04:29:15;15.60;99.90
20288;DHT22;10303;51.960;8.372;2023-11-19T04:31:45;15.50;99.90
20288;DHT22;10303;51.960;8.372;2023-11-19T04:34:12;15.50;99.90
20288;DHT22;10303;51.960;8.372;2023-11-19T04:36:38;15.40;99.90
20288;DHT22;10303;51.960;8.372;2023-11-19T04:39:04;15.50;99.90
20288;DHT22;10303;51.960;8.372;2023-11-19T04:41:50;15.40;99.90
20288;DHT22;10303;51.960;8.372;2023-11-19T04:44:20;15.50;99.90
20288;DHT22;10303;51.960;8.372;2023-11-19T04:46:47;15.50;99.90
20288;DHT22;10303;51.960;8.372;2023-11-19T04:49:13;15.40;99.90
20288;DHT22;10303;51.960;8.372;2023-11-19T04:51:44;15.40;99.90
20288;DHT22;10303;51.960;8.372;2023-11-19T04:54:14;15.50;99.90
20288;DHT22;10303;51.960;8.372;2023-11-19T04:56:40;15.40;99.90
20288;DHT22;10303;51.960;8.372;2023-11-19T04:59:06;15.20;99.90
20288;DHT22;10303;51.960;8.372;2023-11-19T05:01:33;15.30;99.90
20288;DHT22;10303;51.960;8.372;2023-11-19T05:03:59;15.30;99.90
20288;DHT22;10303;51.960;8.372;2023-11-19T05:06:28;15.40;99.90
20288;DHT22;10303;51.960;8.372;2023-11-19T05:08:59;15.40;99.90
20288;DHT22;10303;51.960;8.372;2023-11-19T05:11:27;15.30;99.90
20288;DHT22;10303;51.960;8.372;2023-11-19T05:13:54;15.40;99.90
20288;DHT22;10303;51.960;8.372;2023-11-19T05:16:20;15.50;99.90
20288;DHT22;10303;51.960;8.372;2023-11-19T05:18:46;15.30;99.90
20288;DHT22;10303;51.960;8.372;2023-11-19T05:21:12;15.30;99.90
20288;DHT22;10303;51.960;8.372;2023-11-19T05:23:39;15.20;99.90
20288;DHT22;10303;51.960;8.372;2023-11-19T05:26:05;15.30;99.90
20288;DHT22;10303;51.960;8.372;2023-11-19T05:28:31;15.30;99.90
20288;DHT22;10303;51.960;8.372;2023-11-19T05:30:57;15.10;99.90
20288;DHT22;10303;51.960;8.372;2023-11-19T05:33:23;15.10;99.90
20288;DHT22;10303;51.960;8.372;2023-11-19T05:35:49;15.20;99.90
20288;DHT22;10303;51.960;8.372;2023-11-19T05:38:15;15.30;99.90
20288;DHT22;10303;51.960;8.372;2023-11-19T05:40:41;14.90;99.90
20288;DHT22;10303;51.960;8.372;2023-11-19T05:43:07;15.10;99.90
20288;DHT22;10303;51.960;8.372;2023-11-19T05:45:33;15.10;99.90
20288;DHT22;10303;51.960;8.372;2023-11-19T05:47:59;15.20;99.90
20288;DHT22;10303;51.960;8.372;2023-11-19T05:50:25;15.30;99.90
20288;DHT22;10303;51.960;8.372;2023-11-19T05:52:51;15.40;99.90
20288;DHT22;10303;51.960;8.372;2023-11-19T05:55:18;15.40;99.90
20288;DHT22;10303;51.960;8.372;2023-11-19T05:57:45;15.40;99.90
20288;DHT22;10303;51.960;8.372;2023-11-19T06:00:11;15.40;99.90
20288;DHT22;10303;51.960;8.372;2023-11-19T06:02:39;15.30;99.90
20288;DHT22;10303;51.960;8.372;2023-11-19T06:05:05;15.30;99.90
20288;DHT22;10303;51.960;8.372;2023-11-19T06:07:35;15.20;99.90
20288;DHT22;10303;51.960;8.372;2023-11-19T06:10:02;15.10;99.90
20288;DHT22;10303;51.960;8.372;2023-11-19T06:12:31;15.00;99.90
20288;DHT22;10303;51.960;8.372;2023-11-19T06:14:57;14.80;99.90
20288;DHT22;10303;51.960;8.372;2023-11-19T06:17:23;14.80;99.90
20288;DHT22;10303;51.960;8.372;2023-11-19T06:19:49;15.00;99.90
20288;DHT22;10303;51.960;8.372;2023-11-19T06:22:15;15.00;99.90
20288;DHT22;10303;51.960;8.372;2023-11-19T06:24:41;15.00;99.90
20288;DHT22;10303;51.960;8.372;2023-11-19T06:27:08;15.10;99.90
20288;DHT22;10303;51.960;8.372;2023-11-19T06:29:34;15.10;99.90
20288;DHT22;10303;51.960;8.372;2023-11-19T06:32:00;15.20;99.90
20288;DHT22;10303;51.960;8.372;2023-11-19T06:34:26;15.10;99.90
20288;DHT22;10303;51.960;8.372;2023-11-19T06:36:52;15.10;99.90
20288;DHT22;10303;51.960;8.372;2023-11-19T06:39:18;15.00;99.90
20288;DHT22;10303;51.960;8.372;2023-11-19T06:41:46;15.00;99.90
20288;DHT22;10303;51.960;8.372;2023-11-19T06:44:12;15.10;99.90
20288;DHT22;10303;51.960;8.372;2023-11-19T06:46:39;14.90;99.90
20288;DHT22;10303;51.960;8.372;2023-11-19T06:49:05;14.80;99.90
20288;DHT22;10303;51.960;8.372;2023-11-19T06:51:34;14.80;99.90
20288;DHT22;10303;51.960;8.372;2023-11-19T06:54:00;14.70;99.90
20288;DHT22;10303;51.960;8.372;2023-11-19T06:56:26;14.50;99.90
20288;DHT22;10303;51.960;8.372;2023-11-19T06:58:52;14.70;99.90
20288;DHT22;10303;51.960;8.372;2023-11-19T07:01:19;14.70;99.90
20288;DHT22;10303;51.960;8.372;2023-11-19T07:03:45;14.60;99.90
20288;DHT22;10303;51.960;8.372;2023-11-19T07:06:12;14.80;99.90
20288;DHT22;10303;51.960;8.372;2023-11-19T07:08:42;14.80;99.90
20288;DHT22;10303;51.960;8.372;2023-11-19T07:11:12;14.40;99.90
20288;DHT22;10303;51.960;8.372;2023-11-19T07:13:40;14.30;99.90
20288;DHT22;10303;51.960;8.372;2023-11-19T07:16:07;14.40;99.90
20288;DHT22;10303;51.960;8.372;2023-11-19T07:18:35;14.30;99.90
20288;DHT22;10303;51.960;8.372;2023-11-19T07:21:02;14.30;99.90
20288;DHT22;10303;51.960;8.372;2023-11-19T07:23:28;14.20;99.90
20288;DHT22;10303;51.960;8.372;2023-11-19T07:25:54;14.00;99.90
20288;DHT22;10303;51.960;8.372;2023-11-19T07:28:20;13.90;99.90
20288;DHT22;10303;51.960;8.372;2023-11-19T07:30:46;13.80;99.90
20288;DHT22;10303;51.960;8.372;2023-11-19T07:33:12;13.90;99.90
20288;DHT22;10303;51.960;8.372;2023-11-19T07:35:39;13.90;99.90
20288;DHT22;10303;51.960;8.372;2023-11-19T07:38:08;14.00;99.90
20288;DHT22;10303;51.960;8.372;2023-11-19T07:40:34;13.60;99.90
20288;DHT22;10303;51.960;8.372;2023-11-19T07:43:00;13.70;99.90
20288;DHT22;10303;51.960;8.372;2023-11-19T07:45:26;13.70;99.90
20288;DHT22;10303;51.960;8.372;2023-11-19T07:47:53;13.60;99.90
20288;DHT22;10303;51.960;8.372;2023-11-19T07:50:20;13.50;99.90
20288;DHT22;10303;51.960;8.372;2023-11-19T07:52:46;13.90;99.90
20288;DHT22;10303;51.960;8.372;2023-11-19T07:55:12;14.10;99.90
20288;DHT22;10303;51.960;8.372;2023-11-19T07:57:38;14.20;99.90
20288;DHT22;10303;51.960;8.372;2023-11-19T08:00:04;14.00;99.90
20288;DHT22;10303;51.960;8.372;2023-11-19T08:02:38;13.80;99.90
20288;DHT22;10303;51.960;8.372;2023-11-19T08:05:04;14.00;99.90
20288;DHT22;10303;51.960;8.372;2023-11-19T08:07:31;13.90;99.90
20288;DHT22;10303;51.960;8.372;2023-11-19T08:09:57;14.00;99.90
20288;DHT22;10303;51.960;8.372;2023-11-19T08:12:23;14.00;99.90
20288;DHT22;10303;51.960;8.372;2023-11-19T08:14:49;14.20;99.90
20288;DHT22;10303;51.960;8.372;2023-11-19T08:17:15;14.20;99.90
20288;DHT22;10303;51.960;8.372;2023-11-19T08:19:41;14.00;99.90
20288;DHT22;10303;51.960;8.372;2023-11-19T08:22:07;14.10;99.90
20288;DHT22;10303;51.960;8.372;2023-11-19T08:24:35;14.30;99.90
20288;DHT22;10303;51.960;8.372;2023-11-19T08:27:01;14.40;99.90
20288;DHT22;10303;51.960;8.372;2023-11-19T08:29:27;14.40;99.90
20288;DHT22;10303;51.960;8.372;2023-11-19T08:31:53;14.30;99.90
20288;DHT22;10303;51.960;8.372;2023-11-19T08:34:19;14.50;99.90
20288;DHT22;10303;51.960;8.372;2023-11-19T08:36:50;14.70;99.90
20288;DHT22;10303;51.960;8.372;2023-11-19T08:39:19;14.60;99.90
20288;DHT22;10303;51.960;8.372;2023-11-19T08:41:47;14.80;99.90
20288;DHT22;10303;51.960;8.372;2023-11-19T08:44:14;14.20;99.90
20288;DHT22;10303;51.960;8.372;2023-11-19T08:46:49;14.50;99.90
20288;DHT22;10303;51.960;8.372;2023-11-19T08:49:15;14.20;99.90
20288;DHT22;10303;51.960;8.372;2023-11-19T08:51:43;14.10;99.90
20288;DHT22;10303;51.960;8.372;2023-11-19T08:54:10;14.20;99.90
20288;DHT22;10303;51.960;8.372;2023-11-19T08:56:38;14.20;99.90
20288;DHT22;10303;51.960;8.372;2023-11-19T08:59:05;14.30;99.90
20288;DHT22;10303;51.960;8.372;2023-11-19T09:01:31;14.40;99.90
20288;DHT22;10303;51.960;8.372;2023-11-19T09:03:57;14.40;99.90
20288;DHT22;10303;51.960;8.372;2023-11-19T09:06:23;14.00;99.90
20288;DHT22;10303;51.960;8.372;2023-11-19T09:08:49;14.20;99.90
20288;DHT22;10303;51.960;8.372;2023-11-19T09:11:17;14.30;99.90
20288;DHT22;10303;51.960;8.372;2023-11-19T09:13:44;14.20;99.90
20288;DHT22;10303;51.960;8.372;2023-11-19T09:16:13;14.50;99.90
20288;DHT22;10303;51.960;8.372;2023-11-19T09:18:41;14.40;99.90
20288;DHT22;10303;51.960;8.372;2023-11-19T09:21:07;14.50;99.90
20288;DHT22;10303;51.960;8.372;2023-11-19T09:23:33;14.60;99.90
20288;DHT22;10303;51.960;8.372;2023-11-19T09:26:05;14.10;99.90
20288;DHT22;10303;51.960;8.372;2023-11-19T09:28:31;14.10;99.90
20288;DHT22;10303;51.960;8.372;2023-11-19T09:30:58;14.10;99.90
20288;DHT22;10303;51.960;8.372;2023-11-19T09:33:25;14.20;99.90
20288;DHT22;10303;51.960;8.372;2023-11-19T09:35:52;14.20;99.90
20288;DHT22;10303;51.960;8.372;2023-11-19T09:38:18;14.10;99.90
20288;DHT22;10303;51.960;8.372;2023-11-19T09:40:44;14.40;99.90
20288;DHT22;10303;51.960;8.372;2023-11-19T09:43:10;14.50;99.90
20288;DHT22;10303;51.960;8.372;2023-11-19T09:45:57;14.60;99.90
20288;DHT22;10303;51.960;8.372;2023-11-19T09:48:27;14.30;99.90
20288;DHT22;10303;51.960;8.372;2023-11-19T09:50:53;14.20;99.90
20288;DHT22;10303;51.960;8.372;2023-11-19T09:53:20;14.40;99.90
20288;DHT22;10303;51.960;8.372;2023-11-19T09:55:46;14.30;99.90
20288;DHT22;10303;51.960;8.372;2023-11-19T09:58:14;14.50;99.90
20288;DHT22;10303;51.960;8.372;2023-11-19T10:00:41;14.60;99.90
20288;DHT22;10303;51.960;8.372;2023-11-19T10:03:10;14.60;99.90
20288;DHT22;10303;51.960;8.372;2023-11-19T10:05:38;14.80;99.90
20288;DHT22;10303;51.960;8.372;2023-11-19T10:08:05;14.80;99.90
20288;DHT22;10303;51.960;8.372;2023-11-19T10:10:31;15.00;99.90
20288;DHT22;10303;51.960;8.372;2023-11-19T10:12:57;15.00;99.90
20288;DHT22;10303;51.960;8.372;2023-11-19T10:15:24;15.10;99.90
20288;DHT22;10303;51.960;8.372;2023-11-19T10:17:55;14.80;99.90
20288;DHT22;10303;51.960;8.372;2023-11-19T10:20:22;15.00;99.90
20288;DHT22;10303;51.960;8.372;2023-11-19T10:22:50;14.50;99.90
20288;DHT22;10303;51.960;8.372;2023-11-19T10:25:27;14.70;99.90
20288;DHT22;10303;51.960;8.372;2023-11-19T10:27:54;14.90;99.90
20288;DHT22;10303;51.960;8.372;2023-11-19T10:30:26;15.00;99.90
20288;DHT22;10303;51.960;8.372;2023-11-19T10:33:07;15.00;99.90
20288;DHT22;10303;51.960;8.372;2023-11-19T10:35:57;15.10;99.90
20288;DHT22;10303;51.960;8.372;2023-11-19T10:38:25;15.20;99.90
20288;DHT22;10303;51.960;8.372;2023-11-19T10:40:52;15.10;99.90
20288;DHT22;10303;51.960;8.372;2023-11-19T10:43:20;15.10;99.90
20288;DHT22;10303;51.960;8.372;2023-11-19T10:45:51;15.10;99.90
20288;DHT22;10303;51.960;8.372;2023-11-19T10:48:18;15.00;99.90
20288;DHT22;10303;51.960;8.372;2023-11-19T10:50:46;15.10;99.90
20288;DHT22;10303;51.960;8.372;2023-11-19T10:53:13;15.30;99.90
20288;DHT22;10303;51.960;8.372;2023-11-19T10:55:39;15.40;99.90
20288;DHT22;10303;51.960;8.372;2023-11-19T10:58:07;15.10;99.90
20288;DHT22;10303;51.960;8.372;2023-11-19T11:00:48;15.20;99.90
20288;DHT22;10303;51.960;8.372;2023-11-19T11:03:19;15.10;99.90
20288;DHT22;10303;51.960;8.372;2023-11-19T11:05:47;15.30;99.90
20288;DHT22;10303;51.960;8.372;2023-11-19T11:08:15;15.40;99.90
20288;DHT22;10303;51.960;8.372;2023-11-19T11:10:48;15.50;99.90
20288;DHT22;10303;51.960;8.372;2023-11-19T11:13:19;15.60;99.90
20288;DHT22;10303;51.960;8.372;2023-11-19T11:15:49;15.50;99.90
20288;DHT22;10303;51.960;8.372;2023-11-19T11:18:16;15.20;99.90
20288;DHT22;10303;51.960;8.372;2023-11-19T11:20:46;15.40;99.90
20288;DHT22;10303;51.960;8.372;2023-11-19T11:30:00;15.40;99.90
20288;DHT22;10303;51.960;8.372;2023-11-19T11:33:15;15.40;99.90
20288;DHT22;10303;51.960;8.372;2023-11-19T11:35:55;15.40;99.90
20288;DHT22;10303;51.960;8.372;2023-11-19T11:38:28;15.60;99.90
20288;DHT22;10303;51.960;8.372;2023-11-19T11:41:14;15.50;99.90
20288;DHT22;10303;51.960;8.372;2023-11-19T11:43:51;15.50;99.90
20288;DHT22;10303;51.960;8.372;2023-11-19T11:49:03;15.40;99.90
20288;DHT22;10303;51.960;8.372;2023-11-19T11:57:01;15.40;99.90
20288;DHT22;10303;51.960;8.372;2023-11-19T12:02:11;15.40;99.90
20288;DHT22;10303;51.960;8.372;2023-11-19T12:04:40;15.40;99.90
20288;DHT22;10303;51.960;8.372;2023-11-19T12:07:20;15.50;99.90
20288;DHT22;10303;51.960;8.372;2023-11-19T12:09:49;15.60;99.90
20288;DHT22;10303;51.960;8.372;2023-11-19T12:12:23;15.50;99.90
20288;DHT22;10303;51.960;8.372;2023-11-19T12:20:07;15.00;99.90
20288;DHT22;10303;51.960;8.372;2023-11-19T12:22:39;15.10;99.90
20288;DHT22;10303;51.960;8.372;2023-11-19T12:25:11;15.30;99.90
20288;DHT22;10303;51.960;8.372;2023-11-19T12:27:45;15.40;99.90
20288;DHT22;10303;51.960;8.372;2023-11-19T12:30:23;15.50;99.90
20288;DHT22;10303;51.960;8.372;2023-11-19T12:32:50;15.40;99.90
20288;DHT22;10303;51.960;8.372;2023-11-19T12:35:18;15.60;99.90
20288;DHT22;10303;51.960;8.372;2023-11-19T12:37:46;15.60;99.90
20288;DHT22;10303;51.960;8.372;2023-11-19T12:40:19;15.40;99.90
20288;DHT22;10303;51.960;8.372;2023-11-19T12:42:47;15.40;99.90
20288;DHT22;10303;51.960;8.372;2023-11-19T12:45:14;15.40;99.90
20288;DHT22;10303;51.960;8.372;2023-11-19T12:47:42;15.30;99.90
20288;DHT22;10303;51.960;8.372;2023-11-19T12:50:10;15.50;99.90
20288;DHT22;10303;51.960;8.372;2023-11-19T12:52:37;15.40;99.90
20288;DHT22;10303;51.960;8.372;2023-11-19T12:57:53;15.70;99.90
20288;DHT22;10303;51.960;8.372;2023-11-19T13:00:22;15.80;99.90
20288;DHT22;10303;51.960;8.372;2023-11-19T13:02:50;15.70;99.90
20288;DHT22;10303;51.960;8.372;2023-11-19T13:05:28;15.80;99.90
20288;DHT22;10303;51.960;8.372;2023-11-19T13:10:51;16.00;99.90
20288;DHT22;10303;51.960;8.372;2023-11-19T13:13:19;16.10;99.90
20288;DHT22;10303;51.960;8.372;2023-11-19T13:15:45;15.90;99.90
20288;DHT22;10303;51.960;8.372;2023-11-19T13:18:12;15.80;99.90
20288;DHT22;10303;51.960;8.372;2023-11-19T13:20:39;15.90;99.90
20288;DHT22;10303;51.960;8.372;2023-11-19T13:23:06;16.10;99.90
20288;DHT22;10303;51.960;8.372;2023-11-19T13:25:40;15.90;99.90
20288;DHT22;10303;51.960;8.372;2023-11-19T13:28:06;16.10;99.90
20288;DHT22;10303;51.960;8.372;2023-11-19T13:30:32;16.30;99.90
20288;DHT22;10303;51.960;8.372;2023-11-19T13:32:58;16.40;99.90
20288;DHT22;10303;51.960;8.372;2023-11-19T13:35:24;16.40;99.90
20288;DHT22;10303;51.960;8.372;2023-11-19T13:37:50;16.40;99.90
20288;DHT22;10303;51.960;8.372;2023-11-19T13:40:17;16.50;99.90
20288;DHT22;10303;51.960;8.372;2023-11-19T13:42:44;16.40;99.90
20288;DHT22;10303;51.960;8.372;2023-11-19T13:45:14;16.60;99.90
20288;DHT22;10303;51.960;8.372;2023-11-19T13:47:42;16.60;99.90
20288;DHT22;10303;51.960;8.372;2023-11-19T13:50:10;16.60;99.90
20288;DHT22;10303;51.960;8.372;2023-11-19T13:52:43;16.40;99.90
20288;DHT22;10303;51.960;8.372;2023-11-19T13:55:12;16.40;99.90
20288;DHT22;10303;51.960;8.372;2023-11-19T13:57:39;16.50;99.90
20288;DHT22;10303;51.960;8.372;2023-11-19T14:00:11;16.50;99.90
20288;DHT22;10303;51.960;8.372;2023-11-19T14:02:42;16.50;99.90
20288;DHT22;10303;51.960;8.372;2023-11-19T14:05:09;16.50;99.90
20288;DHT22;10303;51.960;8.372;2023-11-19T14:07:36;16.50;99.90
20288;DHT22;10303;51.960;8.372;2023-11-19T14:10:03;16.60;99.90
20288;DHT22;10303;51.960;8.372;2023-11-19T14:12:31;16.40;99.90
20288;DHT22;10303;51.960;8.372;2023-11-19T14:14:58;16.50;99.90
20288;DHT22;10303;51.960;8.372;2023-11-19T14:17:25;16.50;99.90
20288;DHT22;10303;51.960;8.372;2023-11-19T14:19:52;16.60;99.90
20288;DHT22;10303;51.960;8.372;2023-11-19T14:22:18;16.70;99.90
20288;DHT22;10303;51.960;8.372;2023-11-19T14:24:44;16.70;99.90
20288;DHT22;10303;51.960;8.372;2023-11-19T14:27:10;16.70;99.90
20288;DHT22;10303;51.960;8.372;2023-11-19T14:29:36;16.70;99.90
20288;DHT22;10303;51.960;8.372;2023-11-19T14:32:03;16.60;99.90
20288;DHT22;10303;51.960;8.372;2023-11-19T14:34:30;16.30;99.90
20288;DHT22;10303;51.960;8.372;2023-11-19T14:36:56;16.30;99.90
20288;DHT22;10303;51.960;8.372;2023-11-19T14:39:22;16.30;99.90
20288;DHT22;10303;51.960;8.372;2023-11-19T14:41:48;16.20;99.90
20288;DHT22;10303;51.960;8.372;2023-11-19T14:44:15;16.20;99.90
20288;DHT22;10303;51.960;8.372;2023-11-19T14:46:41;15.80;99.90
20288;DHT22;10303;51.960;8.372;2023-11-19T14:49:07;15.90;99.90
20288;DHT22;10303;51.960;8.372;2023-11-19T14:51:37;15.90;99.90
20288;DHT22;10303;51.960;8.372;2023-11-19T14:54:04;15.50;99.90
20288;DHT22;10303;51.960;8.372;2023-11-19T14:56:31;15.40;99.90
20288;DHT22;10303;51.960;8.372;2023-11-19T14:58:58;15.50;99.90
20288;DHT22;10303;51.960;8.372;2023-11-19T15:01:24;15.30;99.90
20288;DHT22;10303;51.960;8.372;2023-11-19T15:03:51;15.10;99.90
20288;DHT22;10303;51.960;8.372;2023-11-19T15:06:16;15.10;99.90
20288;DHT22;10303;51.960;8.372;2023-11-19T15:08:42;14.80;99.90
20288;DHT22;10303;51.960;8.372;2023-11-19T15:11:10;15.00;99.90
20288;DHT22;10303;51.960;8.372;2023-11-19T15:13:37;15.10;99.90
20288;DHT22;10303;51.960;8.372;2023-11-19T15:16:06;15.10;99.90
20288;DHT22;10303;51.960;8.372;2023-11-19T15:18:36;15.20;99.90
20288;DHT22;10303;51.960;8.372;2023-11-19T15:21:02;15.20;99.90
20288;DHT22;10303;51.960;8.372;2023-11-19T15:23:29;15.20;99.90
20288;DHT22;10303;51.960;8.372;2023-11-19T15:25:55;15.20;99.90
20288;DHT22;10303;51.960;8.372;2023-11-19T15:28:21;15.20;99.90
20288;DHT22;10303;51.960;8.372;2023-11-19T15:30:47;15.20;99.90
20288;DHT22;10303;51.960;8.372;2023-11-19T15:33:13;15.40;99.90
20288;DHT22;10303;51.960;8.372;2023-11-19T15:35:40;15.50;99.90
20288;DHT22;10303;51.960;8.372;2023-11-19T15:38:06;15.50;99.90
20288;DHT22;10303;51.960;8.372;2023-11-19T15:40:35;15.50;99.90
20288;DHT22;10303;51.960;8.372;2023-11-19T15:43:04;15.50;99.90
20288;DHT22;10303;51.960;8.372;2023-11-19T15:45:33;15.50;99.90
20288;DHT22;10303;51.960;8.372;2023-11-19T15:48:04;15.50;99.90
20288;DHT22;10303;51.960;8.372;2023-11-19T15:50:31;15.50;99.90
20288;DHT22;10303;51.960;8.372;2023-11-19T15:52:58;15.50;99.90
20288;DHT22;10303;51.960;8.372;2023-11-19T15:55:24;15.60;99.90
20288;DHT22;10303;51.960;8.372;2023-11-19T15:57:50;15.50;99.90
20288;DHT22;10303;51.960;8.372;2023-11-19T16:00:17;15.40;99.90
20288;DHT22;10303;51.960;8.372;2023-11-19T16:02:46;15.40;99.90
20288;DHT22;10303;51.960;8.372;2023-11-19T16:05:13;15.50;99.90